createdAt,value
2023-07-21T00:01:32.834Z,20.40
2023-07-21T00:04:00.318Z,20.40
2023-07-21T00:06:28.439Z,20.40
2023-07-21T00:08:56.097Z,20.40
2023-07-21T00:11:23.467Z,20.40
2023-07-21T00:13:50.926Z,20.40
2023-07-21T00:16:19.310Z,20.40
2023-07-21T00:18:47.708Z,20.40
2023-07-21T00:21:15.644Z,20.30
2023-07-21T00:23:42.970Z,20.30
2023-07-21T00:26:10.353Z,20.30
2023-07-21T00:28:38.313Z,20.30
2023-07-21T00:31:05.724Z,20.30
2023-07-21T00:33:33.234Z,20.30
2023-07-21T00:36:00.649Z,20.20
2023-07-21T00:38:28.020Z,20.20
2023-07-21T00:40:55.462Z,20.20
2023-07-21T00:43:22.893Z,20.20
2023-07-21T00:45:50.270Z,20.10
2023-07-21T00:48:18.299Z,20.20
2023-07-21T00:50:49.850Z,20.10
2023-07-21T00:53:17.200Z,20.10
2023-07-21T00:55:44.734Z,20.10
2023-07-21T00:58:12.906Z,20.10
2023-07-21T01:00:40.879Z,20.00
2023-07-21T01:03:10.042Z,20.00
2023-07-21T01:05:42.381Z,20.00
2023-07-21T01:08:10.588Z,19.90
2023-07-21T01:10:38.835Z,20.00
2023-07-21T01:13:06.723Z,19.90
2023-07-21T01:15:35.309Z,20.00
2023-07-21T01:18:02.737Z,19.90
2023-07-21T01:20:30.207Z,20.00
2023-07-21T01:23:01.854Z,20.00
2023-07-21T01:25:29.727Z,19.90
2023-07-21T01:27:58.690Z,19.90
2023-07-21T01:30:26.265Z,19.90
2023-07-21T01:32:53.681Z,19.90
2023-07-21T01:35:23.144Z,19.90
2023-07-21T01:37:50.825Z,19.90
2023-07-21T01:40:18.182Z,19.90
2023-07-21T01:42:47.192Z,19.90
2023-07-21T01:45:15.396Z,19.90
2023-07-21T01:47:45.270Z,20.00
2023-07-21T01:50:14.654Z,20.00
2023-07-21T01:52:42.609Z,20.00
2023-07-21T01:55:18.052Z,20.00
2023-07-21T01:57:47.759Z,19.90
2023-07-21T02:00:15.361Z,19.90
2023-07-21T02:02:51.355Z,19.90
2023-07-21T02:05:23.473Z,19.90
2023-07-21T02:07:51.903Z,20.00
2023-07-21T02:10:19.406Z,20.00
2023-07-21T02:12:53.176Z,19.90
2023-07-21T02:15:20.584Z,20.00
2023-07-21T02:17:48.302Z,20.00
2023-07-21T02:20:15.710Z,20.00
2023-07-21T02:22:44.562Z,20.00
2023-07-21T02:25:14.923Z,19.90
2023-07-21T02:27:42.519Z,19.90
2023-07-21T02:30:10.913Z,19.90
2023-07-21T02:32:38.400Z,19.90
2023-07-21T02:35:06.884Z,19.90
2023-07-21T02:37:34.379Z,19.80
2023-07-21T02:40:01.743Z,19.80
2023-07-21T02:42:29.166Z,19.80
2023-07-21T02:44:56.579Z,19.70
2023-07-21T02:47:24.316Z,19.70
2023-07-21T02:49:52.768Z,19.70
2023-07-21T02:52:20.186Z,19.70
2023-07-21T02:54:51.926Z,19.60
2023-07-21T02:57:19.410Z,19.60
2023-07-21T02:59:49.354Z,19.60
2023-07-21T03:02:19.787Z,19.50
2023-07-21T03:04:51.673Z,19.50
2023-07-21T03:07:19.085Z,19.40
2023-07-21T03:09:52.331Z,19.40
2023-07-21T03:12:26.328Z,19.40
2023-07-21T03:15:16.273Z,19.30
2023-07-21T03:18:06.765Z,19.20
2023-07-21T03:20:43.301Z,19.20
2023-07-21T03:23:13.071Z,19.10
2023-07-21T03:25:44.177Z,19.10
2023-07-21T03:28:11.616Z,19.10
2023-07-21T03:30:42.202Z,19.10
2023-07-21T03:33:19.128Z,19.10
2023-07-21T03:36:03.692Z,19.00
2023-07-21T03:38:33.446Z,19.00
2023-07-21T03:41:10.475Z,18.90
2023-07-21T03:43:38.598Z,18.90
2023-07-21T03:46:06.884Z,18.90
2023-07-21T03:48:52.330Z,18.90
2023-07-21T03:51:19.778Z,18.90
2023-07-21T03:53:48.203Z,18.90
2023-07-21T03:56:17.626Z,18.90
2023-07-21T03:58:45.042Z,18.80
2023-07-21T04:01:12.777Z,18.80
2023-07-21T04:03:40.328Z,18.80
2023-07-21T04:06:11.510Z,18.80
2023-07-21T04:08:39.839Z,18.80
2023-07-21T04:11:07.252Z,18.90
2023-07-21T04:13:34.636Z,18.80
2023-07-21T04:16:02.163Z,18.90
2023-07-21T04:18:30.253Z,18.80
2023-07-21T04:20:57.673Z,18.90
2023-07-21T04:23:25.170Z,18.90
2023-07-21T04:25:53.350Z,18.90
2023-07-21T04:28:21.125Z,18.90
2023-07-21T04:30:53.775Z,18.90
2023-07-21T04:33:21.362Z,18.90
2023-07-21T04:35:49.336Z,18.90
2023-07-21T04:38:23.282Z,18.90
2023-07-21T04:40:55.800Z,19.00
2023-07-21T04:43:23.429Z,19.00
2023-07-21T04:45:50.828Z,19.10
2023-07-21T04:48:27.909Z,19.10
2023-07-21T04:50:55.618Z,19.10
2023-07-21T04:53:23.441Z,19.20
2023-07-21T04:55:55.392Z,19.30
2023-07-21T04:58:22.742Z,19.30
2023-07-21T05:00:50.193Z,19.40
2023-07-21T05:03:17.981Z,19.40
2023-07-21T05:05:49.035Z,19.40
2023-07-21T05:08:16.766Z,19.50
2023-07-21T05:10:44.210Z,19.50
2023-07-21T05:13:16.059Z,19.50
2023-07-21T05:15:53.858Z,19.50
2023-07-21T05:18:29.546Z,19.60
2023-07-21T05:20:56.926Z,19.50
2023-07-21T05:23:46.655Z,19.60
2023-07-21T05:26:17.211Z,19.60
2023-07-21T05:28:45.067Z,19.60
2023-07-21T05:31:13.069Z,19.60
2023-07-21T05:33:59.100Z,19.60
2023-07-21T05:36:27.394Z,19.60
2023-07-21T05:38:55.080Z,19.60
2023-07-21T05:41:23.475Z,19.60
2023-07-21T05:43:50.867Z,19.60
2023-07-21T05:46:18.516Z,19.70
2023-07-21T05:48:56.866Z,19.70
2023-07-21T05:51:24.230Z,19.70
2023-07-21T05:53:56.639Z,19.60
2023-07-21T05:56:27.282Z,19.60
2023-07-21T05:58:59.102Z,19.60
2023-07-21T06:01:27.886Z,19.50
2023-07-21T06:03:55.373Z,19.60
2023-07-21T06:06:24.394Z,19.60
2023-07-21T06:09:10.881Z,19.60
2023-07-21T06:11:57.727Z,19.60
2023-07-21T06:14:42.187Z,19.60
2023-07-21T06:17:15.806Z,19.60
2023-07-21T06:19:43.348Z,19.60
2023-07-21T06:22:10.854Z,19.60
2023-07-21T06:24:38.355Z,19.60
2023-07-21T06:27:06.946Z,19.60
2023-07-21T06:29:36.936Z,19.70
2023-07-21T06:32:04.788Z,19.70
2023-07-21T06:34:32.234Z,19.80
2023-07-21T06:37:00.087Z,19.80
2023-07-21T06:39:36.565Z,19.80
2023-07-21T06:42:15.232Z,19.80
2023-07-21T06:44:45.749Z,19.90
2023-07-21T06:47:27.513Z,19.90
2023-07-21T06:50:11.423Z,20.00
2023-07-21T06:52:40.747Z,20.00
2023-07-21T06:55:09.002Z,20.60
2023-07-21T06:57:36.674Z,21.20
2023-07-21T07:00:06.528Z,21.90
2023-07-21T07:02:35.031Z,22.50
2023-07-21T07:05:02.445Z,23.10
2023-07-21T07:07:29.841Z,23.10
2023-07-21T07:09:57.235Z,23.20
2023-07-21T07:12:24.689Z,23.10
2023-07-21T07:14:52.161Z,23.10
2023-07-21T07:17:19.639Z,23.20
2023-07-21T07:19:47.104Z,23.40
2023-07-21T07:22:16.226Z,23.50
2023-07-21T07:24:43.651Z,23.60
2023-07-21T07:27:11.174Z,23.50
2023-07-21T07:29:38.529Z,23.30
2023-07-21T07:32:06.655Z,23.20
2023-07-21T07:34:34.029Z,23.30
2023-07-21T07:37:01.417Z,23.10
2023-07-21T07:39:28.835Z,23.00
2023-07-21T07:41:56.208Z,22.80
2023-07-21T07:44:23.734Z,22.50
2023-07-21T07:46:51.088Z,22.40
2023-07-21T07:49:18.461Z,22.30
2023-07-21T07:51:45.861Z,22.20
2023-07-21T07:54:15.629Z,22.10
2023-07-21T07:56:43.054Z,22.00
2023-07-21T07:59:10.540Z,22.00
2023-07-21T08:01:37.922Z,22.20
2023-07-21T08:04:05.535Z,22.50
2023-07-21T08:06:32.996Z,22.60
2023-07-21T08:09:00.533Z,22.60
2023-07-21T08:11:28.146Z,22.70
2023-07-21T08:13:55.732Z,22.70
2023-07-21T08:16:23.149Z,22.70
2023-07-21T08:18:51.143Z,22.70
2023-07-21T08:21:23.187Z,22.60
2023-07-21T08:23:51.534Z,22.60
2023-07-21T08:26:19.512Z,22.60
2023-07-21T08:28:46.981Z,22.70
2023-07-21T08:31:14.408Z,22.60
2023-07-21T08:33:41.998Z,22.50
2023-07-21T08:36:09.363Z,22.50
2023-07-21T08:38:36.709Z,22.50
2023-07-21T08:41:06.384Z,22.40
2023-07-21T08:43:33.862Z,22.30
2023-07-21T08:46:02.562Z,22.10
2023-07-21T08:48:30.931Z,22.00
2023-07-21T08:50:58.541Z,21.90
2023-07-21T08:53:26.225Z,21.80
2023-07-21T08:55:57.793Z,21.70
2023-07-21T08:58:27.355Z,21.60
2023-07-21T09:00:58.912Z,21.50
2023-07-21T09:03:27.581Z,21.40
2023-07-21T09:05:57.309Z,21.30
2023-07-21T09:08:28.287Z,21.20
2023-07-21T09:11:02.438Z,21.30
2023-07-21T09:13:30.574Z,21.30
2023-07-21T09:16:02.858Z,21.30
2023-07-21T09:18:35.563Z,21.30
2023-07-21T09:21:02.979Z,21.40
2023-07-21T09:23:31.445Z,21.40
2023-07-21T09:26:01.017Z,21.50
2023-07-21T09:28:41.438Z,21.50
2023-07-21T09:31:11.766Z,21.60
2023-07-21T09:33:42.822Z,21.70
2023-07-21T09:36:17.109Z,21.80
2023-07-21T09:38:44.787Z,21.90
2023-07-21T09:41:17.047Z,22.00
2023-07-21T09:43:44.482Z,22.00
2023-07-21T09:48:43.068Z,22.00
2023-07-21T09:51:11.428Z,22.00
2023-07-21T09:53:40.451Z,22.00
2023-07-21T09:56:08.709Z,21.90
2023-07-21T09:58:40.034Z,21.90
2023-07-21T10:01:07.593Z,21.90
2023-07-21T10:03:38.144Z,22.00
2023-07-21T10:06:05.492Z,22.10
2023-07-21T10:08:34.867Z,22.20
2023-07-21T10:11:03.178Z,22.20
2023-07-21T10:13:31.945Z,22.20
2023-07-21T10:16:09.164Z,22.20
2023-07-21T10:19:02.625Z,22.20
2023-07-21T10:21:37.460Z,22.30
2023-07-21T10:24:05.073Z,22.30
2023-07-21T10:26:32.559Z,22.30
2023-07-21T10:29:16.252Z,22.30
2023-07-21T10:31:54.284Z,22.30
2023-07-21T10:34:35.909Z,22.40
2023-07-21T10:37:05.866Z,22.50
2023-07-21T10:39:39.064Z,22.60
2023-07-21T10:42:07.544Z,22.60
2023-07-21T10:44:36.343Z,22.60
2023-07-21T10:47:04.583Z,22.70
2023-07-21T10:49:32.112Z,22.80
2023-07-21T10:51:59.774Z,22.90
2023-07-21T10:54:27.292Z,23.00
2023-07-21T10:56:54.649Z,23.00
2023-07-21T10:59:22.155Z,23.20
2023-07-21T11:01:51.790Z,23.40
2023-07-21T11:04:22.009Z,23.50
2023-07-21T11:06:52.287Z,23.50
2023-07-21T11:09:21.111Z,23.50
2023-07-21T11:11:49.879Z,23.50
2023-07-21T11:14:19.457Z,23.70
2023-07-21T11:16:53.000Z,23.70
2023-07-21T11:19:21.026Z,23.70
2023-07-21T11:21:50.809Z,23.80
2023-07-21T11:24:26.535Z,23.80
2023-07-21T11:26:54.858Z,23.90
2023-07-21T11:29:22.285Z,23.90
2023-07-21T11:31:49.653Z,24.00
2023-07-21T11:34:24.568Z,24.20
2023-07-21T11:36:55.756Z,24.30
2023-07-21T11:39:23.423Z,24.30
2023-07-21T11:41:56.672Z,24.20
2023-07-21T11:44:28.502Z,24.20
2023-07-21T11:46:56.761Z,24.20
2023-07-21T11:49:25.530Z,24.20
2023-07-21T11:51:53.288Z,24.20
2023-07-21T11:54:27.663Z,24.20
2023-07-21T11:56:55.502Z,24.20
2023-07-21T11:59:23.001Z,24.30
2023-07-21T12:01:50.434Z,24.30
2023-07-21T12:04:20.033Z,24.30
2023-07-21T12:06:47.447Z,24.30
2023-07-21T12:09:14.996Z,24.40
2023-07-21T12:11:42.503Z,24.40
2023-07-21T12:14:12.505Z,24.30
2023-07-21T12:16:39.954Z,24.30
2023-07-21T12:19:07.828Z,24.20
2023-07-21T12:21:44.360Z,24.20
2023-07-21T12:24:14.879Z,24.20
2023-07-21T12:26:42.407Z,24.10
2023-07-21T12:29:10.523Z,24.10
2023-07-21T12:31:38.198Z,24.10
2023-07-21T12:34:06.282Z,24.10
2023-07-21T12:36:34.072Z,24.00
2023-07-21T12:39:05.537Z,24.00
2023-07-21T12:41:32.986Z,24.00
2023-07-21T12:44:00.386Z,23.90
2023-07-21T12:46:28.111Z,23.90
2023-07-21T12:48:55.779Z,23.90
2023-07-21T12:51:24.503Z,23.90
2023-07-21T12:53:51.945Z,23.80
2023-07-21T12:56:19.418Z,23.70
2023-07-21T12:58:46.788Z,23.60
2023-07-21T13:01:14.337Z,23.50
2023-07-21T13:03:42.072Z,23.30
2023-07-21T13:06:09.741Z,23.00
2023-07-21T13:08:37.693Z,22.70
2023-07-21T13:11:05.147Z,22.30
2023-07-21T13:13:32.563Z,22.00
2023-07-21T13:15:59.979Z,21.80
2023-07-21T13:18:27.551Z,21.60
2023-07-21T13:20:55.336Z,21.40
2023-07-21T13:23:22.934Z,21.30
2023-07-21T13:25:50.543Z,21.20
2023-07-21T13:28:18.017Z,21.10
2023-07-21T13:30:47.643Z,21.10
2023-07-21T13:33:15.588Z,21.10
2023-07-21T13:35:43.163Z,21.20
2023-07-21T13:38:10.652Z,21.20
2023-07-21T13:40:38.161Z,21.20
2023-07-21T13:43:05.795Z,21.30
2023-07-21T13:45:33.281Z,21.30
2023-07-21T13:48:00.881Z,21.40
2023-07-21T13:50:28.550Z,21.40
2023-07-21T13:52:55.997Z,21.50
2023-07-21T13:55:23.496Z,21.60
2023-07-21T13:57:50.982Z,21.70
2023-07-21T14:00:22.933Z,21.70
2023-07-21T14:02:50.911Z,21.70
2023-07-21T14:05:18.518Z,21.70
2023-07-21T14:07:46.167Z,21.70
2023-07-21T14:10:14.006Z,21.60
2023-07-21T14:12:41.722Z,21.60
2023-07-21T14:15:10.989Z,21.60
2023-07-21T14:17:39.052Z,21.50
2023-07-21T14:20:11.035Z,21.40
2023-07-21T14:22:39.314Z,21.30
2023-07-21T14:25:08.868Z,21.30
2023-07-21T14:27:36.864Z,21.30
2023-07-21T14:30:07.617Z,21.30
2023-07-21T14:32:35.067Z,21.30
2023-07-21T14:35:02.743Z,21.30
2023-07-21T14:37:30.713Z,21.50
2023-07-21T14:39:58.249Z,21.50
2023-07-21T14:42:25.806Z,21.60
2023-07-21T14:44:53.333Z,21.60
2023-07-21T14:47:20.992Z,21.70
2023-07-21T14:49:48.568Z,21.70
2023-07-21T14:52:16.001Z,21.80
2023-07-21T14:54:44.018Z,21.90
2023-07-21T14:57:13.599Z,21.80
2023-07-21T14:59:41.196Z,21.90
2023-07-21T15:02:14.212Z,21.90
2023-07-21T15:04:42.399Z,21.90
2023-07-21T15:07:09.816Z,21.60
2023-07-21T15:09:38.354Z,21.10
2023-07-21T15:12:06.199Z,20.60
2023-07-21T15:14:33.687Z,20.00
2023-07-21T15:17:01.313Z,19.50
2023-07-21T15:19:28.715Z,19.10
2023-07-21T15:21:56.141Z,19.20
2023-07-21T15:24:23.748Z,19.20
2023-07-21T15:26:51.812Z,19.20
2023-07-21T15:29:19.199Z,19.20
2023-07-21T15:31:49.174Z,19.10
2023-07-21T15:34:16.799Z,19.00
2023-07-21T15:36:44.178Z,18.90
2023-07-21T15:39:12.428Z,19.00
2023-07-21T15:41:40.043Z,19.50
2023-07-21T15:44:08.053Z,19.90
2023-07-21T15:46:35.525Z,19.90
2023-07-21T15:49:02.941Z,19.90
2023-07-21T15:51:30.538Z,20.10
2023-07-21T15:54:15.136Z,20.40
2023-07-21T15:56:44.347Z,20.70
2023-07-21T15:59:11.926Z,20.70
2023-07-21T16:01:39.498Z,20.60
2023-07-21T16:04:07.389Z,20.40
2023-07-21T16:06:34.892Z,20.40
2023-07-21T16:09:03.497Z,20.40
2023-07-21T16:11:30.969Z,20.60
2023-07-21T16:13:58.325Z,20.60
2023-07-21T16:16:26.004Z,20.70
2023-07-21T16:18:53.433Z,20.80
2023-07-21T16:21:20.980Z,20.80
2023-07-21T16:23:48.504Z,20.80
2023-07-21T16:26:17.289Z,21.10
2023-07-21T16:28:45.061Z,21.50
2023-07-21T16:31:13.259Z,21.80
2023-07-21T16:33:41.203Z,21.90
2023-07-21T16:36:08.778Z,22.10
2023-07-21T16:38:37.192Z,22.40
2023-07-21T16:41:06.249Z,22.40
2023-07-21T16:43:33.745Z,22.60
2023-07-21T16:46:03.526Z,22.60
2023-07-21T16:48:31.492Z,22.70
2023-07-21T16:50:59.020Z,22.70
2023-07-21T16:53:26.365Z,22.60
2023-07-21T16:55:54.363Z,22.50
2023-07-21T16:58:21.801Z,22.40
2023-07-21T17:00:49.500Z,22.40
2023-07-21T17:03:17.011Z,22.40
2023-07-21T17:05:44.563Z,22.40
2023-07-21T17:08:12.106Z,22.20
2023-07-21T17:10:39.556Z,21.80
2023-07-21T17:13:06.902Z,21.30
2023-07-21T17:15:34.292Z,21.00
2023-07-21T17:18:02.192Z,20.70
2023-07-21T17:20:29.658Z,20.40
2023-07-21T17:22:57.098Z,20.20
2023-07-21T17:25:26.790Z,20.00
2023-07-21T17:27:54.640Z,19.90
2023-07-21T17:30:22.021Z,19.70
2023-07-21T17:32:49.462Z,19.70
2023-07-21T17:35:17.141Z,19.60
2023-07-21T17:37:44.925Z,19.60
2023-07-21T17:40:13.396Z,19.50
2023-07-21T17:42:41.326Z,19.40
2023-07-21T17:45:11.621Z,19.40
2023-07-21T17:47:39.120Z,19.30
2023-07-21T17:50:07.276Z,19.30
2023-07-21T17:52:34.771Z,19.20
2023-07-21T17:55:02.188Z,19.20
2023-07-21T17:57:29.701Z,19.20
2023-07-21T17:59:57.086Z,19.10
2023-07-21T18:02:24.740Z,19.10
2023-07-21T18:04:52.191Z,19.10
2023-07-21T18:07:19.651Z,19.00
2023-07-21T18:09:47.041Z,19.00
2023-07-21T18:12:14.388Z,19.00
2023-07-21T18:14:41.992Z,19.00
2023-07-21T18:17:09.386Z,19.00
2023-07-21T18:19:36.865Z,19.00
2023-07-21T18:22:05.126Z,19.00
2023-07-21T18:24:32.556Z,19.00
2023-07-21T18:27:00.029Z,18.90
2023-07-21T18:29:27.454Z,18.90
2023-07-21T18:31:54.986Z,18.80
2023-07-21T18:34:22.339Z,18.80
2023-07-21T18:36:49.711Z,18.70
2023-07-21T18:39:17.788Z,18.70
2023-07-21T18:41:45.186Z,18.60
2023-07-21T18:44:13.636Z,18.60
2023-07-21T18:46:41.083Z,18.50
2023-07-21T18:49:08.490Z,18.50
2023-07-21T18:51:36.010Z,18.50
2023-07-21T18:54:03.869Z,18.50
2023-07-21T18:56:31.274Z,18.40
2023-07-21T18:58:59.729Z,18.40
2023-07-21T19:01:31.320Z,18.30
2023-07-21T19:03:59.025Z,18.30
2023-07-21T19:06:26.372Z,18.30
2023-07-21T19:08:53.820Z,18.30
2023-07-21T19:11:22.938Z,18.20
2023-07-21T19:13:50.817Z,18.20
2023-07-21T19:16:19.517Z,18.20
2023-07-21T19:18:47.149Z,18.20
2023-07-21T19:21:14.525Z,18.20
2023-07-21T19:23:41.988Z,18.20
2023-07-21T19:26:09.589Z,18.10
2023-07-21T19:28:36.934Z,18.10
2023-07-21T19:31:04.342Z,18.10
2023-07-21T19:33:31.740Z,18.10
2023-07-21T19:35:59.133Z,18.10
2023-07-21T19:38:27.329Z,18.00
2023-07-21T19:40:57.006Z,18.00
2023-07-21T19:43:25.390Z,18.00
2023-07-21T19:45:53.035Z,18.00
2023-07-21T19:48:20.436Z,18.00
2023-07-21T19:50:47.992Z,18.00
2023-07-21T19:53:15.355Z,18.00
2023-07-21T19:55:42.673Z,18.00
2023-07-21T19:58:10.310Z,18.00
2023-07-21T20:00:38.486Z,18.00
2023-07-21T20:03:06.048Z,18.00
2023-07-21T20:05:33.570Z,17.90
2023-07-21T20:08:00.969Z,17.90
2023-07-21T20:10:28.354Z,17.90
2023-07-21T20:12:55.661Z,17.90
2023-07-21T20:15:23.054Z,17.90
2023-07-21T20:17:50.702Z,17.90
2023-07-21T20:20:18.228Z,17.80
2023-07-21T20:22:45.782Z,17.80
2023-07-21T20:25:13.454Z,17.80
2023-07-21T20:27:40.794Z,17.80
2023-07-21T20:30:08.598Z,17.80
2023-07-21T20:32:36.018Z,17.80
2023-07-21T20:35:04.194Z,17.80
2023-07-21T20:37:31.653Z,17.90
2023-07-21T20:39:59.133Z,17.80
2023-07-21T20:42:26.477Z,17.80
2023-07-21T20:44:53.855Z,17.80
2023-07-21T20:47:21.208Z,17.80
2023-07-21T20:49:50.033Z,17.80
2023-07-21T20:52:17.385Z,17.80
2023-07-21T20:54:44.742Z,17.80
2023-07-21T20:57:12.124Z,17.80
2023-07-21T20:59:44.525Z,17.80
2023-07-21T21:02:15.286Z,17.80
2023-07-21T21:04:42.587Z,17.80
2023-07-21T21:07:10.031Z,17.80
2023-07-21T21:09:37.748Z,17.70
2023-07-21T21:12:05.901Z,17.70
2023-07-21T21:14:36.332Z,17.70
2023-07-21T21:17:03.831Z,17.70
2023-07-21T21:19:31.692Z,17.60
2023-07-21T21:21:59.085Z,17.60
2023-07-21T21:24:26.533Z,17.60
2023-07-21T21:26:53.976Z,17.60
2023-07-21T21:29:21.305Z,17.60
2023-07-21T21:31:48.722Z,17.50
2023-07-21T21:34:16.111Z,17.50
2023-07-21T21:36:43.620Z,17.50
2023-07-21T21:39:11.018Z,17.50
2023-07-21T21:41:38.391Z,17.50
2023-07-21T21:44:05.738Z,17.50
2023-07-21T21:46:33.173Z,17.50
2023-07-21T21:49:01.250Z,17.50
2023-07-21T21:51:28.650Z,17.50
2023-07-21T21:53:57.074Z,17.50
2023-07-21T21:56:26.011Z,17.50
2023-07-21T21:58:57.093Z,17.50
2023-07-21T22:01:25.971Z,17.50
2023-07-21T22:03:55.773Z,17.50
2023-07-21T22:06:23.270Z,17.50
2023-07-21T22:08:50.616Z,17.50
2023-07-21T22:11:17.982Z,17.50
2023-07-21T22:13:45.343Z,17.50
2023-07-21T22:16:12.737Z,17.50
2023-07-21T22:18:40.097Z,17.50
2023-07-21T22:21:07.512Z,17.60
2023-07-21T22:23:34.846Z,17.50
2023-07-21T22:26:08.116Z,17.50
2023-07-21T22:28:35.552Z,17.50
2023-07-21T22:31:13.110Z,17.50
2023-07-21T22:33:40.927Z,17.50
2023-07-21T22:36:08.932Z,17.50
2023-07-21T22:38:37.428Z,17.50
2023-07-21T22:41:06.120Z,17.50
2023-07-21T22:43:33.952Z,17.50
2023-07-21T22:46:01.499Z,17.40
2023-07-21T22:48:29.215Z,17.40
2023-07-21T22:50:56.681Z,17.30
2023-07-21T22:53:24.101Z,17.30
2023-07-21T22:55:53.516Z,17.30
2023-07-21T22:58:20.927Z,17.30
2023-07-21T23:00:48.365Z,17.20
2023-07-21T23:03:18.004Z,17.20
2023-07-21T23:05:45.768Z,17.20
2023-07-21T23:08:13.161Z,17.20
2023-07-21T23:10:40.505Z,17.20
2023-07-21T23:13:07.870Z,17.20
2023-07-21T23:15:35.225Z,17.20
2023-07-21T23:18:04.846Z,17.20
2023-07-21T23:20:32.487Z,17.10
2023-07-21T23:22:59.903Z,17.10
2023-07-21T23:25:28.292Z,17.10
2023-07-21T23:27:55.765Z,17.00
2023-07-21T23:30:23.201Z,17.10
2023-07-21T23:32:50.663Z,17.00
2023-07-21T23:35:18.102Z,16.90
2023-07-21T23:37:45.859Z,16.90
2023-07-21T23:40:13.451Z,16.90
2023-07-21T23:42:43.135Z,16.90
2023-07-21T23:45:12.135Z,16.90
2023-07-21T23:47:43.288Z,16.90
2023-07-21T23:50:10.790Z,16.90
2023-07-21T23:52:38.895Z,16.90
2023-07-21T23:55:06.711Z,16.80
2023-07-21T23:57:34.083Z,16.80
